Wilmington, OH

4:36 PM EST on November 26, 2014 (GMT -0500)
Country Manor | Change Station
CLOSE
Current Station
Personal Weather Station
Location: Wilmington, OH
Elevation: 1004 ft
Nearby Weather Stations

Elev 1004 ft 39.44 °N, 83.90 °W | Updated 0 second ago

Overcast
Overcast
34.3 °F
Feels Like 34 °F
N
0.0
Wind Variable Wind from NNW
Gusts 3.0 mph

Today
High -- | Low -- °F
--% Chance of Precip.
Yesterday
High -- | Low -- °F
Precip. -- in
7:31 AM 5:13 PM
Waxing Crescent, 23% visible
Pressure 30.12 in
Visibility 8.0 miles
Clouds Overcast 2900 ft
Windchill 34 °F
Dew Point 28 °F
Humidity 78%
Rainfall 0.00 in
Snow Depth Not available.
UV 0 out of 12
Pollen .10 out of 12
Air Quality Not available.
Flu Activity Not available.
METAR KILN 262054Z AUTO 31005KT 8SM OVC029 02/M03 A3004 RMK AO2 SLP197 T00171028 55007

More Conditions Fewer Conditions

Pressure 30.12 in
Visibility 8.0 miles
Clouds Overcast 2900 ft
Windchill 34 °F
Dew Point 28 °F
Humidity 78%
Rainfall 0.00 in
Snow Depth Not available.
UV 0 out of 12
Pollen .10 out of 12
Air Quality Not available.
Flu Activity Not available.
METAR KILN 262054Z AUTO 31005KT 8SM OVC029 02/M03 A3004 RMK AO2 SLP197 T00171028 55007

More Conditions Fewer Conditions

10-Day Weather Forecast

Almanac

Astronomy

Nov. 26, 2014 Rise Set
Actual Time
Civil Twilight
Nautical Twilight
Astronomical Twilight
Moon
Length of Visible Light
Length of Day
Tomorrow will be .
, % of the Moon is Illuminated

Today's Extremes

State Highs State Lows

Community

WunderPhotos

Upload Photos

1,773,872 photos uploaded!

WunderBlogs® & News

Nearby

Air Quality

  Air Quality AQ Index Pollutant
Not available.

Snow Depth

Station Depth Elevation

Earthquake Activity

City Distance Mag. Time & Date
Minimum magnitude displayed is 2.5.

Coastal Water Temperatures

Place Temperature

Nearby Weather Stations